createdAt,value
2018-03-20T00:00:31.934Z,27.00
2018-03-20T00:01:36.826Z,14.50
2018-03-20T00:02:41.574Z,21.50
2018-03-20T00:03:46.343Z,18.00
2018-03-20T00:04:51.333Z,20.50
2018-03-20T00:05:56.204Z,12.50
2018-03-20T00:07:01.392Z,17.50
2018-03-20T00:08:06.955Z,18.50
2018-03-20T00:09:11.672Z,12.00
2018-03-20T00:10:16.515Z,12.00
2018-03-20T00:11:21.108Z,19.00
2018-03-20T00:12:26.241Z,13.50
2018-03-20T00:13:31.212Z,10.00
2018-03-20T00:14:36.590Z,18.00
2018-03-20T00:15:42.046Z,26.50
2018-03-20T00:16:47.126Z,15.50
2018-03-20T00:17:52.122Z,12.00
2018-03-20T00:18:57.326Z,10.00
2018-03-20T00:20:02.277Z,14.50
2018-03-20T00:21:08.058Z,10.00
2018-03-20T00:22:13.007Z,12.00
2018-03-20T00:23:17.942Z,15.00
2018-03-20T00:24:22.659Z,18.00
2018-03-20T00:25:27.813Z,15.00
2018-03-20T00:26:32.750Z,12.50
2018-03-20T00:27:37.501Z,17.50
2018-03-20T00:28:42.417Z,17.00
2018-03-20T00:29:47.346Z,22.00
2018-03-20T00:30:53.188Z,21.00
2018-03-20T00:31:58.402Z,12.00
2018-03-20T00:33:03.472Z,16.00
2018-03-20T00:34:09.468Z,18.50
2018-03-20T00:35:14.318Z,14.50
2018-03-20T00:36:19.223Z,17.00
2018-03-20T00:37:24.010Z,17.50
2018-03-20T00:38:29.065Z,16.50
2018-03-20T00:39:33.939Z,12.50
2018-03-20T00:40:38.627Z,12.00
2018-03-20T00:41:43.555Z,22.00
2018-03-20T00:42:48.400Z,12.50
2018-03-20T00:43:53.681Z,15.00
2018-03-20T00:44:58.532Z,17.50
2018-03-20T00:46:03.909Z,19.50
2018-03-20T00:47:09.780Z,14.00
2018-03-20T00:48:14.766Z,14.00
2018-03-20T00:49:19.889Z,17.50
2018-03-20T00:50:25.151Z,22.00
2018-03-20T00:51:30.788Z,13.50
2018-03-20T00:52:35.881Z,16.00
2018-03-20T00:53:41.118Z,10.00
2018-03-20T00:54:46.280Z,15.00
2018-03-20T00:55:51.176Z,17.00
2018-03-20T00:56:56.532Z,12.00
2018-03-20T00:58:01.637Z,18.00
2018-03-20T00:59:06.520Z,13.50
2018-03-20T01:00:14.641Z,12.00
2018-03-20T01:01:19.800Z,16.00
2018-03-20T01:02:25.020Z,13.50
2018-03-20T01:03:30.035Z,15.00
2018-03-20T01:04:36.259Z,14.00
2018-03-20T01:05:41.330Z,13.00
2018-03-20T01:06:46.410Z,14.00
2018-03-20T01:07:51.487Z,16.50
2018-03-20T01:08:56.510Z,17.00
2018-03-20T01:10:01.580Z,9.50
2018-03-20T01:11:07.867Z,14.00
2018-03-20T01:12:12.945Z,21.50
2018-03-20T01:13:18.204Z,15.50
2018-03-20T01:14:23.376Z,17.50
2018-03-20T01:15:28.823Z,20.50
2018-03-20T01:16:33.807Z,18.50
2018-03-20T01:17:38.765Z,16.50
2018-03-20T01:18:43.901Z,17.00
2018-03-20T01:19:49.450Z,11.50
2018-03-20T01:20:54.541Z,18.00
2018-03-20T01:21:59.473Z,20.50
2018-03-20T01:23:04.628Z,13.00
2018-03-20T01:24:10.493Z,15.50
2018-03-20T01:25:15.471Z,18.00
2018-03-20T01:26:20.905Z,12.50
2018-03-20T01:27:26.050Z,14.50
2018-03-20T01:28:30.924Z,12.50
2018-03-20T01:29:37.102Z,15.50
2018-03-20T01:30:42.936Z,20.00
2018-03-20T01:31:47.987Z,10.00
2018-03-20T01:32:53.481Z,14.50
2018-03-20T01:33:58.428Z,15.50
2018-03-20T01:35:03.411Z,8.00
2018-03-20T01:36:08.599Z,9.50
2018-03-20T01:37:13.526Z,14.00
2018-03-20T01:38:18.942Z,8.00
2018-03-20T01:39:24.024Z,18.00
2018-03-20T01:40:29.285Z,12.00
2018-03-20T01:41:35.200Z,12.00
2018-03-20T01:42:40.232Z,14.00
2018-03-20T01:43:45.179Z,10.00
2018-03-20T01:44:50.824Z,10.00
2018-03-20T01:45:56.308Z,19.50
2018-03-20T01:47:02.321Z,9.50
2018-03-20T01:48:08.532Z,16.50
2018-03-20T01:49:13.608Z,7.50
2018-03-20T01:50:18.870Z,17.50
2018-03-20T01:51:24.399Z,8.00
2018-03-20T01:52:29.391Z,10.50
2018-03-20T01:53:35.508Z,9.00
2018-03-20T01:54:40.670Z,9.00
2018-03-20T01:55:45.768Z,14.00
2018-03-20T01:56:50.821Z,10.00
2018-03-20T01:57:56.307Z,12.00
2018-03-20T01:59:01.583Z,12.00
2018-03-20T02:00:09.751Z,12.50
2018-03-20T02:01:14.928Z,10.00
2018-03-20T02:02:20.365Z,17.50
2018-03-20T02:03:25.728Z,8.00
2018-03-20T02:04:31.514Z,9.50
2018-03-20T02:05:38.423Z,10.00
2018-03-20T02:06:43.574Z,12.50
2018-03-20T02:07:48.822Z,10.50
2018-03-20T02:08:53.970Z,19.50
2018-03-20T02:09:59.107Z,12.00
2018-03-20T02:11:04.791Z,14.00
2018-03-20T02:12:10.867Z,9.00
2018-03-20T02:13:16.033Z,9.50
2018-03-20T02:14:21.648Z,5.00
2018-03-20T02:15:26.993Z,17.00
2018-03-20T02:16:32.281Z,11.50
2018-03-20T02:17:37.477Z,12.00
2018-03-20T02:18:42.607Z,12.00
2018-03-20T02:19:47.948Z,16.50
2018-03-20T02:20:52.741Z,15.00
2018-03-20T02:21:57.905Z,8.00
2018-03-20T02:23:03.028Z,11.00
2018-03-20T02:24:09.194Z,12.50
2018-03-20T02:25:14.233Z,11.00
2018-03-20T02:26:19.323Z,12.00
2018-03-20T02:27:24.569Z,7.00
2018-03-20T02:28:29.706Z,13.50
2018-03-20T02:29:35.176Z,10.50
2018-03-20T02:30:40.740Z,16.00
2018-03-20T02:31:45.563Z,9.50
2018-03-20T02:32:50.309Z,11.50
2018-03-20T02:33:55.224Z,10.00
2018-03-20T02:34:59.899Z,9.00
2018-03-20T02:36:05.183Z,13.50
2018-03-20T02:37:10.780Z,6.00
2018-03-20T02:38:15.491Z,8.00
2018-03-20T02:39:20.277Z,11.50
2018-03-20T02:40:25.024Z,10.00
2018-03-20T02:41:30.366Z,14.00
2018-03-20T02:42:34.992Z,12.00
2018-03-20T02:43:40.066Z,9.50
2018-03-20T02:44:45.207Z,11.00
2018-03-20T02:45:50.150Z,21.50
2018-03-20T02:46:54.977Z,7.50
2018-03-20T02:47:59.987Z,9.50
2018-03-20T02:49:05.971Z,10.00
2018-03-20T02:50:11.000Z,8.50
2018-03-20T02:51:15.966Z,9.50
2018-03-20T02:52:21.273Z,13.50
2018-03-20T02:53:26.308Z,8.00
2018-03-20T02:54:31.216Z,9.50
2018-03-20T02:55:37.503Z,7.00
2018-03-20T02:56:42.253Z,6.50
2018-03-20T02:57:46.915Z,4.50
2018-03-20T02:58:51.621Z,6.50
2018-03-20T02:59:56.312Z,7.50
2018-03-20T03:01:01.642Z,12.00
2018-03-20T03:02:06.821Z,5.50
2018-03-20T03:03:11.376Z,6.00
2018-03-20T03:04:16.305Z,2.50
2018-03-20T03:05:20.937Z,6.50
2018-03-20T03:06:25.937Z,4.00
2018-03-20T03:07:31.593Z,6.00
2018-03-20T03:08:37.464Z,4.00
2018-03-20T03:09:42.129Z,10.00
2018-03-20T03:10:47.056Z,8.00
2018-03-20T03:11:51.842Z,8.00
2018-03-20T03:12:56.595Z,8.00
2018-03-20T03:14:01.641Z,4.00
2018-03-20T03:15:08.286Z,6.00
2018-03-20T03:16:13.390Z,10.00
2018-03-20T03:17:18.314Z,6.00
2018-03-20T03:18:22.900Z,3.50
2018-03-20T03:19:27.487Z,7.50
2018-03-20T03:20:32.712Z,6.00
2018-03-20T03:21:37.479Z,10.00
2018-03-20T03:22:41.928Z,8.00
2018-03-20T03:23:46.764Z,9.50
2018-03-20T03:24:51.809Z,7.50
2018-03-20T03:25:56.825Z,5.00
2018-03-20T03:27:01.784Z,10.00
2018-03-20T03:28:07.387Z,5.00
2018-03-20T03:29:12.045Z,6.00
2018-03-20T03:30:16.763Z,10.00
2018-03-20T03:31:21.434Z,7.50
2018-03-20T03:32:26.232Z,9.50
2018-03-20T03:33:31.644Z,7.50
2018-03-20T03:34:36.458Z,5.50
2018-03-20T03:35:41.170Z,5.00
2018-03-20T03:36:45.598Z,6.00
2018-03-20T03:37:49.995Z,4.00
2018-03-20T03:38:54.349Z,5.50
2018-03-20T03:39:58.798Z,3.50
2018-03-20T03:41:03.200Z,8.50
2018-03-20T03:42:08.312Z,9.50
2018-03-20T03:43:12.810Z,11.00
2018-03-20T03:44:17.269Z,7.00
2018-03-20T03:45:22.317Z,14.50
2018-03-20T03:46:27.423Z,6.00
2018-03-20T03:47:32.487Z,6.00
2018-03-20T03:48:37.055Z,8.50
2018-03-20T03:49:41.841Z,9.00
2018-03-20T03:50:46.290Z,6.00
2018-03-20T03:51:50.734Z,8.00
2018-03-20T03:52:55.374Z,6.00
2018-03-20T03:54:00.354Z,11.50
2018-03-20T03:55:05.325Z,11.50
2018-03-20T03:56:10.129Z,6.00
2018-03-20T03:57:15.651Z,6.00
2018-03-20T03:58:20.557Z,7.50
2018-03-20T03:59:25.640Z,5.00
2018-03-20T04:00:30.614Z,10.50
2018-03-20T04:01:36.011Z,4.00
2018-03-20T04:02:41.160Z,5.50
2018-03-20T04:03:45.901Z,3.00
2018-03-20T04:04:50.988Z,4.50
2018-03-20T04:05:56.507Z,2.00
2018-03-20T04:07:00.989Z,6.00
2018-03-20T04:08:05.553Z,4.00
2018-03-20T04:09:10.139Z,6.50
2018-03-20T04:10:15.222Z,7.00
2018-03-20T04:11:20.214Z,5.50
2018-03-20T04:12:24.957Z,6.00
2018-03-20T04:13:29.604Z,7.50
2018-03-20T04:14:34.686Z,8.50
2018-03-20T04:15:40.059Z,15.00
2018-03-20T04:16:44.640Z,5.50
2018-03-20T04:17:49.295Z,6.00
2018-03-20T04:18:53.792Z,4.00
2018-03-20T04:19:58.142Z,5.00
2018-03-20T04:21:02.412Z,5.00
2018-03-20T04:22:06.955Z,6.50
2018-03-20T04:23:11.659Z,9.00
2018-03-20T04:24:17.435Z,4.50
2018-03-20T04:25:22.086Z,8.00
2018-03-20T04:26:26.583Z,4.50
2018-03-20T04:27:30.944Z,4.00
2018-03-20T04:28:35.484Z,7.50
2018-03-20T04:29:40.042Z,4.00
2018-03-20T04:30:44.546Z,11.00
2018-03-20T04:31:48.872Z,6.00
2018-03-20T04:32:53.486Z,4.50
2018-03-20T04:33:58.043Z,4.00
2018-03-20T04:35:02.609Z,9.50
2018-03-20T04:36:07.092Z,5.00
2018-03-20T04:37:12.119Z,12.00
2018-03-20T04:38:17.763Z,9.50
2018-03-20T04:39:22.677Z,10.00
2018-03-20T04:40:27.564Z,9.00
2018-03-20T04:41:32.033Z,6.00
2018-03-20T04:42:36.784Z,8.00
2018-03-20T04:43:41.717Z,6.00
2018-03-20T04:44:46.360Z,8.00
2018-03-20T04:45:51.434Z,15.50
2018-03-20T04:46:56.350Z,8.00
2018-03-20T04:48:00.920Z,10.00
2018-03-20T04:49:05.342Z,7.50
2018-03-20T04:50:09.782Z,10.00
2018-03-20T04:51:14.712Z,9.00
2018-03-20T04:52:19.277Z,10.00
2018-03-20T04:53:23.658Z,11.50
2018-03-20T04:54:28.140Z,10.00
2018-03-20T04:55:32.804Z,13.00
2018-03-20T04:56:37.939Z,10.00
2018-03-20T04:57:42.479Z,11.00
2018-03-20T04:58:46.810Z,8.00
2018-03-20T04:59:51.115Z,7.00
2018-03-20T05:00:55.861Z,17.50
2018-03-20T05:02:00.701Z,10.00
2018-03-20T05:03:05.280Z,14.00
2018-03-20T05:04:09.652Z,11.00
2018-03-20T05:05:14.231Z,9.00
2018-03-20T05:06:18.822Z,7.50
2018-03-20T05:07:23.471Z,5.50
2018-03-20T05:08:28.394Z,4.00
2018-03-20T05:09:33.739Z,8.00
2018-03-20T05:10:38.213Z,5.50
2018-03-20T05:11:42.942Z,6.50
2018-03-20T05:12:47.569Z,6.00
2018-03-20T05:13:52.249Z,10.00
2018-03-20T05:14:57.263Z,7.50
2018-03-20T05:16:02.379Z,9.00
2018-03-20T05:17:07.081Z,6.50
2018-03-20T05:18:11.864Z,7.50
2018-03-20T05:19:17.122Z,4.00
2018-03-20T05:20:21.904Z,5.50
2018-03-20T05:21:27.913Z,6.00
2018-03-20T05:22:33.870Z,6.00
2018-03-20T05:23:38.864Z,9.00
2018-03-20T05:24:43.625Z,10.00
2018-03-20T05:25:48.507Z,12.00
2018-03-20T05:26:52.818Z,9.50
2018-03-20T05:27:57.875Z,8.00
2018-03-20T05:29:02.693Z,6.50
2018-03-20T05:30:08.304Z,16.00
2018-03-20T05:31:14.485Z,19.50
2018-03-20T05:32:19.557Z,6.00
2018-03-20T05:33:24.466Z,9.00
2018-03-20T05:34:29.695Z,6.50
2018-03-20T05:35:35.499Z,8.50
2018-03-20T05:36:40.203Z,8.50
2018-03-20T05:37:45.308Z,6.50
2018-03-20T05:38:50.557Z,9.00
2018-03-20T05:39:55.436Z,13.00
2018-03-20T05:41:00.475Z,5.00
2018-03-20T05:42:05.676Z,16.00
2018-03-20T05:43:10.483Z,14.50
2018-03-20T05:44:15.444Z,12.50
2018-03-20T05:45:21.582Z,20.00
2018-03-20T05:46:26.916Z,18.50
2018-03-20T05:47:32.536Z,15.00
2018-03-20T05:48:37.893Z,14.50
2018-03-20T05:49:42.928Z,14.50
2018-03-20T05:50:48.160Z,12.00
2018-03-20T05:51:53.348Z,16.00
2018-03-20T05:52:58.408Z,19.00
2018-03-20T05:54:03.621Z,17.50
2018-03-20T05:55:08.812Z,14.00
2018-03-20T05:56:14.860Z,19.00
2018-03-20T05:57:20.157Z,20.50
2018-03-20T05:58:25.275Z,23.00
2018-03-20T05:59:30.541Z,14.50
2018-03-20T06:00:36.313Z,24.00
2018-03-20T06:01:41.849Z,15.50
2018-03-20T06:02:47.076Z,15.00
2018-03-20T06:03:52.121Z,12.50
2018-03-20T06:04:57.362Z,19.50
2018-03-20T06:06:02.515Z,18.00
2018-03-20T06:07:08.019Z,22.50
2018-03-20T06:08:13.152Z,16.50
2018-03-20T06:09:19.230Z,19.50
2018-03-20T06:10:24.308Z,18.50
2018-03-20T06:11:29.430Z,21.00
2018-03-20T06:12:34.708Z,18.50
2018-03-20T06:13:40.336Z,18.50
2018-03-20T06:14:45.610Z,12.50
2018-03-20T06:15:51.128Z,25.50
2018-03-20T06:16:56.675Z,21.50
2018-03-20T06:18:01.795Z,22.50
2018-03-20T06:19:07.319Z,19.50
2018-03-20T06:20:12.452Z,19.50
2018-03-20T06:21:17.527Z,24.50
2018-03-20T06:22:23.439Z,24.50
2018-03-20T06:23:28.605Z,24.50
2018-03-20T06:24:34.249Z,17.00
2018-03-20T06:25:40.033Z,23.50
2018-03-20T06:26:45.780Z,20.00
2018-03-20T06:27:50.769Z,20.50
2018-03-20T06:28:56.148Z,20.50
2018-03-20T06:30:01.368Z,23.50
2018-03-20T06:31:07.785Z,21.00
2018-03-20T06:32:13.000Z,22.00
2018-03-20T06:33:18.668Z,19.50
2018-03-20T06:34:23.637Z,26.50
2018-03-20T06:35:28.560Z,21.00
2018-03-20T06:37:32.154Z,23.50
2018-03-20T06:38:37.357Z,26.00
2018-03-20T06:39:43.255Z,27.00
2018-03-20T06:40:48.666Z,21.00
2018-03-20T06:41:53.773Z,30.50
2018-03-20T06:42:59.043Z,20.00
2018-03-20T06:44:04.042Z,33.50
2018-03-20T06:45:09.379Z,23.50
2018-03-20T06:46:14.989Z,31.50
2018-03-20T06:47:20.284Z,23.50
2018-03-20T06:48:25.251Z,25.50
2018-03-20T06:49:30.361Z,20.50
2018-03-20T06:50:35.470Z,21.50
2018-03-20T06:51:40.663Z,20.50
2018-03-20T06:52:45.565Z,20.50
2018-03-20T06:53:50.500Z,24.50
2018-03-20T06:54:55.597Z,25.50
2018-03-20T06:56:01.079Z,23.00
2018-03-20T06:57:06.414Z,20.00
2018-03-20T06:58:11.481Z,21.50
2018-03-20T06:59:17.804Z,23.50
2018-03-20T07:00:23.694Z,22.00
2018-03-20T07:01:28.888Z,28.00
2018-03-20T07:02:34.034Z,30.50
2018-03-20T07:03:39.700Z,26.00
2018-03-20T07:04:44.770Z,28.00
2018-03-20T07:05:49.887Z,25.50
2018-03-20T07:06:55.200Z,18.00
2018-03-20T07:08:00.344Z,23.50
2018-03-20T07:09:05.672Z,26.00
2018-03-20T07:10:10.725Z,24.00
2018-03-20T07:11:15.715Z,29.00
2018-03-20T07:12:20.782Z,23.00
2018-03-20T07:13:26.237Z,25.50
2018-03-20T07:14:31.383Z,17.00
2018-03-20T07:15:36.489Z,25.50
2018-03-20T07:16:41.479Z,23.00
2018-03-20T07:17:46.430Z,19.00
2018-03-20T07:18:51.508Z,20.00
2018-03-20T07:19:56.580Z,22.50
2018-03-20T07:21:01.506Z,20.50
2018-03-20T07:22:06.498Z,20.50
2018-03-20T07:23:11.941Z,22.00
2018-03-20T07:24:17.422Z,22.00
2018-03-20T07:25:22.753Z,26.00
2018-03-20T07:26:27.681Z,19.50
2018-03-20T07:27:32.521Z,24.50
2018-03-20T07:28:37.785Z,24.50
2018-03-20T07:29:43.769Z,27.50
2018-03-20T07:30:49.061Z,31.00
2018-03-20T07:31:54.417Z,20.50
2018-03-20T07:32:59.283Z,20.00
2018-03-20T07:34:04.563Z,21.50
2018-03-20T07:35:09.795Z,20.00
2018-03-20T07:36:14.902Z,37.50
2018-03-20T07:37:20.180Z,20.00
2018-03-20T07:38:25.209Z,20.00
2018-03-20T07:39:30.393Z,19.50
2018-03-20T07:40:35.659Z,21.00
2018-03-20T07:41:40.852Z,19.50
2018-03-20T07:42:46.121Z,20.00
2018-03-20T07:43:51.517Z,18.00
2018-03-20T07:44:56.558Z,22.50
2018-03-20T07:46:02.552Z,25.00
2018-03-20T07:47:07.622Z,19.00
2018-03-20T07:48:12.688Z,21.50
2018-03-20T07:49:18.927Z,21.50
2018-03-20T07:50:24.715Z,15.50
2018-03-20T07:51:29.801Z,26.50
2018-03-20T07:52:34.699Z,23.00
2018-03-20T07:53:39.699Z,23.50
2018-03-20T07:54:45.104Z,22.00
2018-03-20T07:55:50.364Z,21.50
2018-03-20T07:56:55.612Z,24.50
2018-03-20T07:58:00.799Z,25.00
2018-03-20T07:59:05.898Z,22.50
2018-03-20T08:00:10.940Z,19.00
2018-03-20T08:01:16.414Z,23.50
2018-03-20T08:02:21.770Z,23.50
2018-03-20T08:03:26.870Z,25.50
2018-03-20T08:04:32.118Z,21.50
2018-03-20T08:05:37.045Z,18.00
2018-03-20T08:06:42.715Z,24.50
2018-03-20T08:07:47.605Z,23.00
2018-03-20T08:08:52.819Z,24.00
2018-03-20T08:09:57.692Z,21.50
2018-03-20T08:11:02.798Z,24.00
2018-03-20T08:12:07.973Z,24.00
2018-03-20T08:13:13.180Z,22.00
2018-03-20T08:14:19.140Z,26.00
2018-03-20T08:15:24.477Z,26.50
2018-03-20T08:16:29.474Z,21.50
2018-03-20T08:17:34.414Z,22.50
2018-03-20T08:18:40.477Z,22.50
2018-03-20T08:19:45.508Z,18.00
2018-03-20T08:20:50.362Z,16.50
2018-03-20T08:21:55.803Z,16.00
2018-03-20T08:23:00.704Z,22.00
2018-03-20T08:24:05.855Z,21.00
2018-03-20T08:25:10.885Z,25.50
2018-03-20T08:26:15.651Z,23.00
2018-03-20T08:27:20.647Z,23.50
2018-03-20T08:28:25.689Z,23.00
2018-03-20T08:29:30.373Z,21.00
2018-03-20T08:30:35.317Z,27.00
2018-03-20T08:31:40.282Z,21.00
2018-03-20T08:32:45.291Z,23.50
2018-03-20T08:33:50.157Z,17.00
2018-03-20T08:34:55.072Z,24.00
2018-03-20T08:35:59.880Z,25.50
2018-03-20T08:37:05.145Z,19.50
2018-03-20T08:38:09.966Z,23.00
2018-03-20T08:39:15.041Z,22.50
2018-03-20T08:40:20.716Z,21.00
2018-03-20T08:41:25.693Z,22.50
2018-03-20T08:42:30.657Z,21.50
2018-03-20T08:43:35.890Z,27.50
2018-03-20T08:44:41.795Z,21.00
2018-03-20T08:45:47.231Z,27.50
2018-03-20T08:46:52.189Z,32.50
2018-03-20T08:47:57.329Z,26.00
2018-03-20T08:49:02.455Z,21.50
2018-03-20T08:50:07.444Z,23.00
2018-03-20T08:51:12.332Z,20.50
2018-03-20T08:52:17.453Z,22.00
2018-03-20T08:53:22.366Z,23.00
2018-03-20T08:54:27.146Z,20.50
2018-03-20T08:55:32.264Z,18.50
2018-03-20T08:56:37.198Z,21.00
2018-03-20T08:57:42.915Z,19.50
2018-03-20T08:58:48.171Z,18.50
2018-03-20T08:59:53.152Z,20.00
2018-03-20T09:00:58.569Z,23.50
2018-03-20T09:02:03.471Z,21.50
2018-03-20T09:03:08.486Z,18.50
2018-03-20T09:04:13.407Z,22.00
2018-03-20T09:05:18.617Z,25.50
2018-03-20T09:06:24.322Z,27.50
2018-03-20T09:07:29.172Z,29.00
2018-03-20T09:08:34.033Z,16.50
2018-03-20T09:09:38.999Z,21.50
2018-03-20T09:10:44.790Z,20.50
2018-03-20T09:11:50.029Z,20.00
2018-03-20T09:12:54.949Z,23.00
2018-03-20T09:13:59.732Z,24.00
2018-03-20T09:15:06.798Z,23.00
2018-03-20T09:16:12.273Z,30.00
2018-03-20T09:17:17.257Z,27.50
2018-03-20T09:18:22.182Z,22.50
2018-03-20T09:19:26.886Z,27.00
2018-03-20T09:20:31.823Z,20.50
2018-03-20T09:21:36.784Z,32.50
2018-03-20T09:22:41.697Z,26.00
2018-03-20T09:23:46.447Z,22.00
2018-03-20T09:24:51.462Z,22.00
2018-03-20T09:25:56.526Z,23.50
2018-03-20T09:27:01.419Z,22.00
2018-03-20T09:28:06.202Z,21.50
2018-03-20T09:29:11.143Z,17.00
2018-03-20T09:30:20.719Z,19.50
2018-03-20T09:31:25.914Z,22.50
2018-03-20T09:32:30.725Z,19.00
2018-03-20T09:33:35.518Z,25.00
2018-03-20T09:34:40.352Z,26.00
2018-03-20T09:35:46.058Z,25.00
2018-03-20T09:36:50.786Z,20.00
2018-03-20T09:37:55.670Z,22.50
2018-03-20T09:39:00.533Z,22.00
2018-03-20T09:40:05.942Z,21.00
2018-03-20T09:41:10.848Z,20.50
2018-03-20T09:42:15.651Z,18.00
2018-03-20T09:44:25.942Z,27.00
2018-03-20T09:45:31.149Z,24.50
2018-03-20T09:46:35.798Z,16.50
2018-03-20T09:47:41.124Z,19.50
2018-03-20T09:48:45.715Z,20.00
2018-03-20T09:49:50.782Z,19.50
2018-03-20T09:50:55.613Z,17.00
2018-03-20T09:52:00.390Z,15.00
2018-03-20T09:53:05.220Z,18.50
2018-03-20T09:54:09.919Z,20.50
2018-03-20T09:55:14.836Z,17.50
2018-03-20T09:56:19.876Z,20.00
2018-03-20T09:57:24.583Z,17.50
2018-03-20T09:58:29.472Z,13.50
2018-03-20T09:59:34.177Z,23.00
2018-03-20T10:00:39.526Z,21.00
2018-03-20T10:01:45.191Z,17.50
2018-03-20T10:02:50.279Z,17.50
2018-03-20T10:03:55.005Z,21.50
2018-03-20T10:04:59.759Z,18.00
2018-03-20T10:06:04.521Z,20.00
2018-03-20T10:07:09.505Z,21.50
2018-03-20T10:08:14.265Z,23.50
2018-03-20T10:09:20.515Z,21.50
2018-03-20T10:10:28.083Z,21.00
2018-03-20T10:11:35.461Z,15.00
2018-03-20T10:12:42.056Z,18.50
2018-03-20T10:13:47.226Z,26.50
2018-03-20T10:14:52.049Z,21.00
2018-03-20T10:15:57.517Z,30.00
2018-03-20T10:17:02.835Z,22.00
2018-03-20T10:18:07.619Z,26.00
2018-03-20T10:19:12.416Z,25.00
2018-03-20T10:20:17.508Z,20.00
2018-03-20T10:21:22.413Z,21.00
2018-03-20T10:22:27.134Z,25.50
2018-03-20T10:23:31.900Z,25.00
2018-03-20T10:24:36.661Z,27.50
2018-03-20T10:25:41.399Z,29.00
2018-03-20T10:26:47.040Z,24.00
2018-03-20T10:27:52.337Z,27.50
2018-03-20T10:28:56.920Z,25.00
2018-03-20T10:30:03.145Z,20.00
2018-03-20T10:31:07.933Z,17.50
2018-03-20T10:32:12.768Z,22.50
2018-03-20T10:33:17.833Z,24.00
2018-03-20T10:34:23.056Z,20.00
2018-03-20T10:35:27.969Z,20.00
2018-03-20T10:36:33.062Z,25.00
2018-03-20T10:37:37.761Z,22.00
2018-03-20T10:38:43.538Z,17.00
2018-03-20T10:39:48.697Z,19.00
2018-03-20T10:40:53.310Z,23.00
2018-03-20T10:41:58.047Z,24.00
2018-03-20T10:43:03.113Z,14.00
2018-03-20T10:44:07.837Z,19.00
2018-03-20T10:45:14.434Z,21.50
2018-03-20T10:46:19.078Z,17.00
2018-03-20T10:47:23.789Z,13.50
2018-03-20T10:48:28.521Z,22.50
2018-03-20T10:49:33.284Z,17.50
2018-03-20T10:50:38.010Z,21.00
2018-03-20T10:51:43.965Z,18.50
2018-03-20T10:52:48.712Z,22.00
2018-03-20T10:53:53.257Z,25.00
2018-03-20T10:54:57.873Z,23.00
2018-03-20T10:56:02.688Z,22.00
2018-03-20T10:57:07.426Z,21.00
2018-03-20T10:58:12.578Z,20.00
2018-03-20T10:59:17.406Z,19.00
2018-03-20T11:00:26.426Z,28.00
2018-03-20T11:01:32.834Z,22.50
2018-03-20T11:02:41.448Z,26.00
2018-03-20T11:03:46.596Z,25.00
2018-03-20T11:04:51.154Z,25.50
2018-03-20T11:05:55.984Z,20.50
2018-03-20T11:07:00.845Z,16.50
2018-03-20T11:08:05.678Z,18.00
2018-03-20T11:09:10.775Z,17.00
2018-03-20T11:10:15.427Z,15.00
2018-03-20T11:11:20.303Z,17.50
2018-03-20T11:12:25.773Z,19.00
2018-03-20T11:13:30.417Z,26.50
2018-03-20T11:14:35.122Z,19.50
2018-03-20T11:15:39.723Z,20.50
2018-03-20T11:16:44.713Z,21.00
2018-03-20T11:17:49.300Z,24.00
2018-03-20T11:18:54.028Z,23.50
2018-03-20T11:19:58.800Z,25.50
2018-03-20T11:21:03.473Z,19.00
2018-03-20T11:22:08.232Z,18.50
2018-03-20T11:23:13.221Z,17.00
2018-03-20T11:24:18.012Z,18.50
2018-03-20T11:25:22.631Z,19.50
2018-03-20T11:26:28.451Z,15.00
2018-03-20T11:27:33.074Z,18.00
2018-03-20T11:28:37.894Z,18.50
2018-03-20T11:29:43.663Z,17.50
2018-03-20T11:30:48.665Z,19.00
2018-03-20T11:31:53.254Z,23.00
2018-03-20T11:32:58.137Z,18.00
2018-03-20T11:34:02.932Z,27.00
2018-03-20T11:35:07.674Z,23.50
2018-03-20T11:36:12.726Z,19.50
2018-03-20T11:37:17.274Z,23.00
2018-03-20T11:38:21.950Z,25.50
2018-03-20T11:39:26.631Z,25.00
2018-03-20T11:40:31.342Z,22.50
2018-03-20T11:41:36.199Z,21.00
2018-03-20T11:42:42.403Z,23.00
2018-03-20T11:43:47.119Z,19.50
2018-03-20T11:44:51.780Z,24.00
2018-03-20T11:45:56.799Z,28.50
2018-03-20T11:47:01.488Z,21.00
2018-03-20T11:48:06.382Z,24.00
2018-03-20T11:49:11.467Z,24.50
2018-03-20T11:50:16.146Z,25.00
2018-03-20T11:51:20.733Z,27.50
2018-03-20T11:52:25.477Z,23.00
2018-03-20T11:53:30.220Z,24.00
2018-03-20T11:54:35.784Z,18.00
2018-03-20T11:55:41.719Z,22.00
2018-03-20T11:56:46.481Z,23.00
2018-03-20T11:57:51.152Z,27.00
2018-03-20T11:58:55.934Z,26.00
2018-03-20T12:00:00.638Z,20.50
2018-03-20T12:01:05.748Z,27.00
2018-03-20T12:02:10.617Z,16.00
2018-03-20T12:03:15.301Z,19.00
2018-03-20T12:04:20.098Z,21.00
2018-03-20T12:05:24.821Z,24.00
2018-03-20T12:06:29.577Z,21.50
2018-03-20T12:07:34.425Z,29.00
2018-03-20T12:08:49.497Z,22.00
2018-03-20T12:09:54.126Z,23.50
2018-03-20T12:10:59.020Z,25.50
2018-03-20T12:12:03.904Z,28.50
2018-03-20T12:13:08.747Z,20.50
2018-03-20T12:14:13.460Z,21.00
2018-03-20T12:16:45.965Z,29.50
2018-03-20T12:17:52.671Z,22.50
2018-03-20T12:18:59.616Z,22.00
2018-03-20T12:20:06.401Z,24.00
2018-03-20T12:21:11.834Z,21.00
2018-03-20T12:22:18.361Z,22.00
2018-03-20T12:23:29.186Z,28.00
2018-03-20T12:24:35.669Z,25.50
2018-03-20T12:25:41.357Z,30.50
2018-03-20T12:26:50.856Z,23.00
2018-03-20T12:27:56.346Z,29.00
2018-03-20T12:29:03.073Z,17.00
2018-03-20T12:30:08.849Z,20.50
2018-03-20T12:31:15.039Z,29.00
2018-03-20T12:32:19.967Z,20.50
2018-03-20T12:33:26.113Z,21.00
2018-03-20T12:34:32.433Z,25.50
2018-03-20T12:35:39.784Z,22.00
2018-03-20T12:36:47.661Z,23.50
2018-03-20T12:37:52.295Z,26.00
2018-03-20T12:38:58.569Z,23.00
2018-03-20T12:40:03.560Z,26.50
2018-03-20T12:41:09.053Z,17.00
2018-03-20T12:42:15.398Z,24.50
2018-03-20T12:43:21.593Z,19.00
2018-03-20T12:44:27.633Z,20.50
2018-03-20T12:45:34.602Z,33.00
2018-03-20T12:46:41.634Z,26.00
2018-03-20T12:47:48.015Z,25.50
2018-03-20T12:48:54.453Z,27.00
2018-03-20T12:50:00.366Z,24.00
2018-03-20T12:51:05.871Z,25.00
2018-03-20T12:52:11.271Z,23.50
2018-03-20T12:53:16.088Z,23.00
2018-03-20T12:54:22.066Z,32.00
2018-03-20T12:55:28.880Z,27.00
2018-03-20T12:56:34.918Z,28.00
2018-03-20T12:57:41.169Z,25.50
2018-03-20T12:58:46.328Z,28.50
2018-03-20T12:59:52.958Z,22.00
2018-03-20T13:00:58.915Z,31.00
2018-03-20T13:02:03.664Z,25.50
2018-03-20T13:03:08.952Z,24.00
2018-03-20T13:04:14.658Z,20.50
2018-03-20T13:05:20.568Z,25.00
2018-03-20T13:06:26.619Z,24.00
2018-03-20T13:07:33.907Z,20.00
2018-03-20T13:08:41.375Z,22.50
2018-03-20T13:09:46.859Z,20.00
2018-03-20T13:10:52.918Z,28.00
2018-03-20T13:11:59.188Z,23.00
2018-03-20T13:13:05.744Z,21.50
2018-03-20T13:14:11.128Z,23.00
2018-03-20T13:15:17.407Z,25.00
2018-03-20T13:16:22.294Z,26.00
2018-03-20T13:17:27.804Z,20.50
2018-03-20T13:18:33.969Z,22.50
2018-03-20T13:19:41.162Z,16.50
2018-03-20T13:20:46.611Z,24.50
2018-03-20T13:21:51.874Z,19.00
2018-03-20T13:22:57.866Z,21.00
2018-03-20T13:24:03.542Z,22.00
2018-03-20T13:25:09.332Z,20.00
2018-03-20T13:26:17.407Z,23.50
2018-03-20T13:27:22.285Z,26.00
2018-03-20T13:28:27.438Z,16.50
2018-03-20T13:29:35.875Z,25.50
2018-03-20T13:30:42.597Z,28.00
2018-03-20T13:33:26.096Z,29.50
2018-03-20T13:34:30.767Z,17.50
2018-03-20T13:35:35.463Z,21.00
2018-03-20T13:36:40.287Z,21.50
2018-03-20T13:37:45.058Z,24.50
2018-03-20T13:38:49.773Z,26.00
2018-03-20T13:39:54.729Z,23.50
2018-03-20T13:40:59.403Z,19.50
2018-03-20T13:42:04.224Z,26.00
2018-03-20T13:43:08.988Z,23.00
2018-03-20T13:44:13.713Z,28.50
2018-03-20T13:45:18.937Z,21.50
2018-03-20T13:46:23.761Z,26.50
2018-03-20T13:47:28.422Z,24.00
2018-03-20T13:48:33.405Z,18.00
2018-03-20T13:49:38.121Z,29.00
2018-03-20T13:50:42.866Z,23.50
2018-03-20T13:51:47.892Z,22.50
2018-03-20T13:52:52.617Z,20.00
2018-03-20T13:53:57.230Z,14.00
2018-03-20T13:55:01.892Z,19.00
2018-03-20T13:56:06.730Z,27.00
2018-03-20T13:57:12.900Z,19.50
2018-03-20T13:58:17.708Z,18.50
2018-03-20T13:59:22.456Z,24.00
2018-03-20T14:00:27.463Z,35.50
2018-03-20T14:01:32.315Z,19.50
2018-03-20T14:02:37.055Z,18.50
2018-03-20T14:03:41.851Z,21.00
2018-03-20T14:04:46.793Z,15.50
2018-03-20T14:05:51.480Z,20.50
2018-03-20T14:06:56.298Z,21.00
2018-03-20T14:08:00.988Z,16.00
2018-03-20T14:09:06.280Z,21.00
2018-03-20T14:10:11.189Z,21.50